Tulsa, Oklahoma
Current Conditions -  °F | °C
As of 5:53 AM on Thursday 18 Dec 2014 (Local Time) from KTUL Reporting Station
Drizzle Drizzle  
Wind Chill: -1°   Ceiling: 400
Heat Index:   Visibility: 3mi
Dew Point:   Wind: 7mph
Humidity: 100%   Direction: 130°SE
Pressure: 30.16"   Gusts: NA
Location:  36.15°N, 95.99°W
Report Text: KTUL 181153Z 13006KT 3SM -DZ BR OVC004 02/02 A3016 RMK AO2 SLP217 P0000 60001 70038 T00220022 10028 20022 56003
Loading
Personal Weather Stations






























Interactive Weather Map New forecast layout! Learn more

10-Day Weather Forecast

Advertisements
Track Severe Weather on mobile